createdAt,value
2023-02-06T00:00:58.579Z,28.40
2023-02-06T00:03:00.177Z,20.92
2023-02-06T00:05:01.735Z,14.60
2023-02-06T00:07:03.364Z,13.75
2023-02-06T00:09:06.205Z,13.48
2023-02-06T00:11:11.482Z,13.27
2023-02-06T00:13:12.989Z,12.23
2023-02-06T00:15:14.648Z,11.35
2023-02-06T00:17:16.147Z,14.57
2023-02-06T00:19:17.631Z,12.10
2023-02-06T00:21:22.090Z,13.30
2023-02-06T00:23:23.947Z,12.70
2023-02-06T00:25:25.448Z,13.85
2023-02-06T00:27:27.127Z,13.02
2023-02-06T00:29:28.704Z,12.48
2023-02-06T00:31:30.243Z,13.95
2023-02-06T00:33:31.807Z,19.02
2023-02-06T00:35:33.615Z,40.97
2023-02-06T00:37:35.377Z,22.30
2023-02-06T00:39:37.111Z,14.60
2023-02-06T00:41:38.680Z,16.70
2023-02-06T00:43:40.964Z,14.68
2023-02-06T00:45:42.544Z,17.02
2023-02-06T00:47:44.150Z,14.57
2023-02-06T00:49:45.715Z,38.55
2023-02-06T00:51:48.136Z,48.15
2023-02-06T00:53:51.199Z,20.25
2023-02-06T00:55:53.015Z,15.25
2023-02-06T00:57:54.550Z,19.50
2023-02-06T00:59:56.076Z,18.75
2023-02-06T01:01:57.612Z,34.88
2023-02-06T01:03:59.194Z,18.80
2023-02-06T01:06:00.922Z,26.00
2023-02-06T01:08:04.400Z,25.75
2023-02-06T01:10:08.168Z,16.35
2023-02-06T01:12:09.701Z,20.33
2023-02-06T01:14:11.326Z,16.92
2023-02-06T01:16:16.142Z,18.48
2023-02-06T01:18:17.884Z,22.60
2023-02-06T01:20:19.450Z,18.17
2023-02-06T01:22:20.963Z,16.35
2023-02-06T01:24:22.507Z,13.70
2023-02-06T01:26:29.678Z,15.75
2023-02-06T01:28:31.209Z,16.60
2023-02-06T01:30:33.011Z,14.52
2023-02-06T01:32:39.619Z,15.48
2023-02-06T01:34:41.223Z,13.80
2023-02-06T01:36:42.782Z,13.23
2023-02-06T01:38:44.872Z,13.25
2023-02-06T01:40:46.393Z,15.45
2023-02-06T01:42:47.904Z,14.40
2023-02-06T01:44:49.444Z,17.08
2023-02-06T01:46:53.360Z,22.42
2023-02-06T01:48:54.953Z,16.33
2023-02-06T01:50:58.243Z,16.70
2023-02-06T01:53:00.516Z,16.73
2023-02-06T01:55:05.034Z,15.07
2023-02-06T01:57:10.705Z,16.85
2023-02-06T01:59:12.762Z,16.90
2023-02-06T02:01:15.933Z,17.50
2023-02-06T02:03:17.666Z,16.35
2023-02-06T02:05:19.763Z,14.73
2023-02-06T02:07:26.354Z,14.57
2023-02-06T02:09:29.676Z,15.70
2023-02-06T02:11:36.639Z,15.48
2023-02-06T02:13:39.098Z,15.82
2023-02-06T02:15:52.022Z,16.73
2023-02-06T02:18:02.715Z,20.15
2023-02-06T02:20:30.171Z,20.38
2023-02-06T02:22:37.421Z,16.35
2023-02-06T02:25:09.877Z,20.20
2023-02-06T02:27:37.437Z,18.52
2023-02-06T02:30:11.363Z,19.10
2023-02-06T02:32:51.811Z,14.75
2023-02-06T02:35:03.089Z,15.25
2023-02-06T02:37:46.686Z,14.85
2023-02-06T02:39:56.619Z,14.60
2023-02-06T02:42:08.992Z,15.95
2023-02-06T02:44:14.952Z,16.05
2023-02-06T02:46:25.263Z,15.95
2023-02-06T02:48:30.839Z,15.00
2023-02-06T02:50:32.977Z,20.38
2023-02-06T02:52:34.487Z,20.85
2023-02-06T02:54:36.046Z,15.75
2023-02-06T02:56:37.763Z,17.23
2023-02-06T02:58:39.990Z,15.30
2023-02-06T03:00:47.507Z,15.25
2023-02-06T03:02:51.653Z,18.15
2023-02-06T03:05:00.112Z,16.88
2023-02-06T03:07:24.585Z,15.97
2023-02-06T03:09:59.746Z,13.57
2023-02-06T03:12:13.741Z,17.65
2023-02-06T03:14:29.410Z,15.10
2023-02-06T03:16:59.674Z,15.85
2023-02-06T03:19:24.832Z,15.05
2023-02-06T03:21:28.366Z,13.57
2023-02-06T03:23:33.154Z,14.55
2023-02-06T03:25:38.692Z,14.27
2023-02-06T03:27:43.701Z,15.90
2023-02-06T03:29:47.982Z,15.07
2023-02-06T03:31:59.335Z,13.02
2023-02-06T03:34:17.319Z,14.05
2023-02-06T03:36:20.165Z,13.65
2023-02-06T03:38:24.744Z,14.20
2023-02-06T03:40:27.967Z,15.57
2023-02-06T03:42:31.111Z,15.18
2023-02-06T03:44:37.033Z,14.70
2023-02-06T03:46:41.063Z,15.32
2023-02-06T03:48:47.670Z,16.17
2023-02-06T03:50:52.595Z,16.58
2023-02-06T03:52:56.909Z,19.48
2023-02-06T03:55:04.100Z,22.55
2023-02-06T03:57:08.168Z,22.17
2023-02-06T03:59:09.935Z,27.35
2023-02-06T04:01:12.150Z,24.92
2023-02-06T04:03:14.908Z,20.77
2023-02-06T04:05:18.239Z,21.42
2023-02-06T04:07:26.429Z,23.02
2023-02-06T04:09:27.965Z,22.77
2023-02-06T04:11:29.514Z,25.23
2023-02-06T04:13:31.007Z,23.02
2023-02-06T04:15:32.541Z,22.20
2023-02-06T04:17:49.810Z,22.63
2023-02-06T04:19:55.555Z,23.02
2023-02-06T04:21:57.512Z,21.38
2023-02-06T04:23:59.029Z,19.98
2023-02-06T04:26:00.750Z,18.83
2023-02-06T04:28:02.391Z,25.45
2023-02-06T04:30:05.003Z,22.30
2023-02-06T04:32:06.903Z,23.10
2023-02-06T04:34:08.649Z,17.13
2023-02-06T04:36:10.395Z,18.33
2023-02-06T04:38:11.995Z,23.38
2023-02-06T04:40:13.568Z,18.02
2023-02-06T04:42:15.199Z,16.33
2023-02-06T04:44:16.902Z,14.20
2023-02-06T04:46:18.438Z,18.00
2023-02-06T04:48:20.352Z,17.65
2023-02-06T04:50:21.882Z,14.98
2023-02-06T04:52:23.508Z,13.40
2023-02-06T04:54:25.182Z,13.02
2023-02-06T04:56:26.722Z,14.05
2023-02-06T04:58:28.274Z,16.05
2023-02-06T05:00:29.871Z,15.38
2023-02-06T05:02:33.773Z,23.20
2023-02-06T05:04:35.516Z,16.85
2023-02-06T05:06:37.207Z,16.13
2023-02-06T05:08:39.413Z,22.45
2023-02-06T05:10:40.978Z,20.63
2023-02-06T05:12:42.544Z,21.75
2023-02-06T05:14:44.087Z,26.23
2023-02-06T05:16:45.604Z,20.02
2023-02-06T05:18:47.462Z,20.02
2023-02-06T05:20:48.994Z,22.85
2023-02-06T05:22:50.502Z,19.48
2023-02-06T05:24:52.018Z,24.48
2023-02-06T05:26:53.581Z,23.92
2023-02-06T05:28:55.076Z,15.88
2023-02-06T05:30:57.315Z,11.70
2023-02-06T05:32:58.917Z,12.43
2023-02-06T05:35:00.442Z,14.77
2023-02-06T05:37:02.043Z,20.10
2023-02-06T05:39:04.668Z,22.33
2023-02-06T05:41:06.290Z,19.33
2023-02-06T05:43:08.621Z,18.38
2023-02-06T05:45:10.163Z,23.40
2023-02-06T05:47:11.686Z,23.17
2023-02-06T05:49:13.235Z,20.77
2023-02-06T05:51:14.755Z,20.02
2023-02-06T05:53:17.518Z,22.52
2023-02-06T05:55:19.106Z,19.15
2023-02-06T05:57:20.584Z,24.48
2023-02-06T05:59:22.611Z,19.45
2023-02-06T06:01:24.345Z,19.08
2023-02-06T06:03:25.917Z,15.10
2023-02-06T06:05:27.538Z,19.35
2023-02-06T06:07:29.102Z,24.77
2023-02-06T06:09:30.713Z,28.75
2023-02-06T06:11:33.518Z,44.03
2023-02-06T06:13:35.089Z,46.05
2023-02-06T06:15:37.073Z,52.08
2023-02-06T06:17:39.139Z,50.67
2023-02-06T06:19:40.655Z,41.25
2023-02-06T06:21:42.297Z,48.55
2023-02-06T06:23:43.956Z,33.28
2023-02-06T06:25:47.192Z,30.98
2023-02-06T06:27:48.820Z,29.77
2023-02-06T06:29:50.443Z,33.20
2023-02-06T06:31:52.253Z,31.52
2023-02-06T06:33:54.251Z,37.33
2023-02-06T06:35:55.840Z,39.53
2023-02-06T06:37:57.412Z,33.03
2023-02-06T06:39:58.948Z,26.98
2023-02-06T06:42:00.548Z,23.90
2023-02-06T06:44:02.295Z,23.25
2023-02-06T06:46:05.298Z,22.90
2023-02-06T06:48:06.924Z,21.02
2023-02-06T06:50:08.841Z,29.77
2023-02-06T06:52:22.970Z,25.75
2023-02-06T06:54:25.813Z,24.35
2023-02-06T06:56:27.354Z,25.45
2023-02-06T06:58:28.861Z,28.83
2023-02-06T07:00:30.514Z,25.58
2023-02-06T07:02:32.089Z,20.30
2023-02-06T07:04:34.132Z,16.25
2023-02-06T07:06:35.802Z,21.75
2023-02-06T07:08:41.931Z,19.98
2023-02-06T07:10:43.513Z,22.98
2023-02-06T07:12:45.034Z,26.63
2023-02-06T07:14:46.771Z,29.38
2023-02-06T07:16:48.263Z,32.60
2023-02-06T07:18:49.858Z,39.88
2023-02-06T07:20:51.582Z,45.15
2023-02-06T07:22:53.679Z,29.10
2023-02-06T07:24:55.268Z,24.90
2023-02-06T07:26:57.801Z,26.52
2023-02-06T07:28:59.328Z,31.60
2023-02-06T07:31:07.128Z,25.83
2023-02-06T07:33:08.679Z,20.23
2023-02-06T07:35:10.348Z,18.90
2023-02-06T07:37:11.881Z,30.30
2023-02-06T07:39:13.516Z,17.98
2023-02-06T07:41:16.095Z,15.52
2023-02-06T07:43:17.735Z,13.88
2023-02-06T07:45:19.266Z,59.30
2023-02-06T07:47:20.771Z,44.03
2023-02-06T07:49:22.332Z,13.00
2023-02-06T07:51:24.041Z,13.45
2023-02-06T07:53:25.578Z,32.25
2023-02-06T07:55:27.625Z,24.95
2023-02-06T07:57:29.167Z,12.45
2023-02-06T07:59:30.725Z,11.02
2023-02-06T08:01:32.761Z,9.93
2023-02-06T08:03:34.680Z,13.65
2023-02-06T08:05:38.751Z,12.18
2023-02-06T08:07:40.556Z,17.63
2023-02-06T08:09:42.705Z,11.05
2023-02-06T08:11:44.848Z,11.23
2023-02-06T08:13:48.101Z,14.13
2023-02-06T08:15:49.723Z,13.30
2023-02-06T08:17:51.252Z,14.57
2023-02-06T08:19:52.802Z,15.27
2023-02-06T08:21:54.349Z,17.75
2023-02-06T08:24:00.302Z,17.85
2023-02-06T08:26:13.124Z,24.45
2023-02-06T08:28:15.040Z,39.53
2023-02-06T08:30:16.800Z,30.75
2023-02-06T08:32:18.477Z,27.48
2023-02-06T08:34:19.990Z,29.90
2023-02-06T08:36:22.285Z,28.90
2023-02-06T08:38:23.802Z,66.97
2023-02-06T08:40:25.315Z,31.45
2023-02-06T08:42:27.002Z,35.30
2023-02-06T08:44:28.600Z,33.88
2023-02-06T08:46:32.289Z,30.58
2023-02-06T08:48:33.794Z,37.20
2023-02-06T08:50:35.527Z,38.47
2023-02-06T08:52:37.202Z,31.25
2023-02-06T08:54:39.039Z,37.10
2023-02-06T08:56:40.685Z,32.70
2023-02-06T08:58:42.204Z,29.58
2023-02-06T09:00:43.737Z,37.40
2023-02-06T09:02:45.270Z,33.63
2023-02-06T09:04:46.916Z,50.55
2023-02-06T09:06:52.184Z,53.30
2023-02-06T09:08:55.619Z,30.92
2023-02-06T09:11:04.652Z,29.92
2023-02-06T09:13:06.260Z,41.58
2023-02-06T09:15:08.816Z,38.40
2023-02-06T09:17:10.369Z,52.70
2023-02-06T09:19:12.560Z,44.13
2023-02-06T09:21:17.064Z,40.45
2023-02-06T09:23:19.058Z,25.58
2023-02-06T09:25:20.638Z,24.05
2023-02-06T09:27:22.136Z,20.23
2023-02-06T09:29:24.146Z,20.10
2023-02-06T09:31:33.539Z,22.98
2023-02-06T09:33:36.757Z,25.02
2023-02-06T09:35:38.760Z,19.23
2023-02-06T09:37:40.703Z,26.20
2023-02-06T09:39:42.322Z,23.42
2023-02-06T09:41:47.423Z,28.35
2023-02-06T09:43:54.299Z,33.05
2023-02-06T09:46:03.598Z,32.92
2023-02-06T09:48:26.625Z,17.95
2023-02-06T09:50:57.925Z,17.08
2023-02-06T09:53:16.163Z,14.07
2023-02-06T09:55:20.428Z,13.27
2023-02-06T09:57:45.059Z,10.57
2023-02-06T09:59:55.989Z,10.20
2023-02-06T10:02:18.629Z,19.48
2023-02-06T10:04:45.271Z,11.18
2023-02-06T10:07:13.022Z,7.65
2023-02-06T10:09:23.104Z,9.02
2023-02-06T10:11:54.490Z,9.18
2023-02-06T10:14:00.366Z,12.65
2023-02-06T10:16:12.136Z,9.88
2023-02-06T10:18:39.215Z,19.42
2023-02-06T10:20:53.588Z,14.88
2023-02-06T10:23:09.883Z,16.63
2023-02-06T10:25:29.374Z,14.07
2023-02-06T10:27:33.645Z,7.05
2023-02-06T10:29:36.496Z,7.70
2023-02-06T10:32:07.990Z,20.98
2023-02-06T10:35:04.752Z,9.55
2023-02-06T10:37:51.375Z,6.93
2023-02-06T10:40:05.040Z,8.02
2023-02-06T10:42:17.620Z,6.93
2023-02-06T10:44:32.083Z,7.90
2023-02-06T10:46:46.298Z,6.22
2023-02-06T10:49:11.398Z,7.50
2023-02-06T10:51:25.406Z,15.32
2023-02-06T10:53:31.650Z,10.05
2023-02-06T10:55:45.550Z,10.10
2023-02-06T10:57:51.789Z,15.20
2023-02-06T10:59:58.605Z,10.55
2023-02-06T11:02:21.157Z,7.75
2023-02-06T11:04:34.419Z,7.22
2023-02-06T11:06:36.742Z,12.30
2023-02-06T11:08:43.705Z,7.28
2023-02-06T11:10:46.578Z,9.20
2023-02-06T11:12:54.178Z,9.25
2023-02-06T11:15:00.437Z,8.02
2023-02-06T11:17:02.081Z,9.73
2023-02-06T11:19:16.124Z,11.80
2023-02-06T11:21:46.572Z,15.45
2023-02-06T11:24:09.449Z,9.40
2023-02-06T11:26:17.792Z,8.05
2023-02-06T11:28:20.922Z,7.50
2023-02-06T11:30:29.776Z,37.20
2023-02-06T11:32:40.754Z,16.85
2023-02-06T11:34:57.114Z,11.52
2023-02-06T11:37:37.383Z,13.98
2023-02-06T11:39:39.860Z,9.13
2023-02-06T11:41:49.527Z,9.57
2023-02-06T11:43:53.910Z,9.75
2023-02-06T11:46:26.250Z,10.98
2023-02-06T11:48:56.335Z,12.90
2023-02-06T11:50:57.908Z,13.75
2023-02-06T11:53:11.815Z,10.23
2023-02-06T11:55:23.781Z,9.13
2023-02-06T11:57:26.900Z,9.50
2023-02-06T11:59:29.701Z,10.15
2023-02-06T12:01:42.075Z,9.25
2023-02-06T12:03:49.572Z,12.23
2023-02-06T12:05:52.282Z,22.92
2023-02-06T12:08:05.480Z,11.90
2023-02-06T12:10:14.210Z,13.13
2023-02-06T12:12:32.788Z,10.85
2023-02-06T12:14:54.358Z,13.65
2023-02-06T12:16:56.696Z,12.25
2023-02-06T12:19:00.135Z,33.08
2023-02-06T12:21:18.860Z,25.38
2023-02-06T12:23:33.689Z,23.58
2023-02-06T12:25:38.493Z,31.98
2023-02-06T12:27:42.358Z,12.13
2023-02-06T12:29:58.539Z,11.23
2023-02-06T12:32:15.083Z,10.07
2023-02-06T12:34:28.325Z,14.05
2023-02-06T12:36:47.782Z,8.38
2023-02-06T12:39:01.035Z,35.33
2023-02-06T12:41:25.998Z,23.85
2023-02-06T12:43:29.501Z,35.38
2023-02-06T12:45:54.096Z,10.95
2023-02-06T12:48:21.571Z,55.65
2023-02-06T12:50:33.900Z,24.95
2023-02-06T12:52:48.197Z,58.63
2023-02-06T12:55:12.410Z,41.08
2023-02-06T12:57:27.322Z,11.52
2023-02-06T12:59:57.452Z,40.55
2023-02-06T13:02:32.566Z,35.50
2023-02-06T13:04:37.838Z,31.38
2023-02-06T13:06:49.024Z,20.83
2023-02-06T13:08:56.912Z,25.85
2023-02-06T13:11:03.237Z,10.73
2023-02-06T13:13:05.023Z,20.10
2023-02-06T13:15:20.248Z,66.45
2023-02-06T13:17:27.596Z,76.75
2023-02-06T13:19:51.235Z,59.67
2023-02-06T13:22:17.400Z,23.65
2023-02-06T13:24:19.888Z,15.05
2023-02-06T13:26:53.570Z,10.65
2023-02-06T13:28:59.392Z,16.33
2023-02-06T13:31:07.359Z,23.25
2023-02-06T13:33:20.927Z,11.55
2023-02-06T13:35:28.742Z,9.35
2023-02-06T13:37:39.238Z,12.35
2023-02-06T13:39:40.831Z,14.50
2023-02-06T13:41:44.609Z,15.27
2023-02-06T13:43:54.018Z,12.93
2023-02-06T13:46:13.341Z,9.88
2023-02-06T13:48:27.047Z,12.93
2023-02-06T13:51:05.146Z,17.00
2023-02-06T13:53:12.684Z,8.48
2023-02-06T13:55:29.145Z,16.23
2023-02-06T13:57:45.888Z,36.05
2023-02-06T13:59:59.504Z,16.42
2023-02-06T14:02:32.491Z,14.07
2023-02-06T14:04:34.081Z,14.77
2023-02-06T14:07:05.694Z,9.75
2023-02-06T14:09:30.675Z,18.60
2023-02-06T14:12:04.459Z,16.58
2023-02-06T14:14:28.458Z,30.38
2023-02-06T14:16:49.792Z,32.22
2023-02-06T14:19:03.448Z,22.88
2023-02-06T14:21:35.399Z,43.88
2023-02-06T14:23:47.519Z,45.13
2023-02-06T14:26:07.879Z,12.93
2023-02-06T14:28:29.642Z,11.80
2023-02-06T14:30:51.037Z,11.60
2023-02-06T14:33:23.589Z,13.55
2023-02-06T14:35:42.980Z,24.23
2023-02-06T14:38:09.620Z,23.80
2023-02-06T14:40:41.583Z,15.70
2023-02-06T14:42:45.424Z,14.48
2023-02-06T14:44:54.063Z,21.60
2023-02-06T14:46:56.292Z,16.27
2023-02-06T14:48:59.944Z,19.02
2023-02-06T14:51:02.040Z,10.27
2023-02-06T14:53:15.003Z,17.85
2023-02-06T14:55:32.597Z,13.38
2023-02-06T14:57:34.246Z,9.63
2023-02-06T14:59:35.888Z,14.70
2023-02-06T15:01:37.450Z,16.25
2023-02-06T15:03:40.282Z,19.17
2023-02-06T15:05:42.390Z,19.05
2023-02-06T15:07:44.000Z,22.75
2023-02-06T15:09:55.846Z,28.17
2023-02-06T15:12:02.524Z,21.73
2023-02-06T15:14:20.493Z,22.63
2023-02-06T15:16:29.053Z,23.83
2023-02-06T15:18:30.809Z,17.48
2023-02-06T15:20:46.681Z,16.00
2023-02-06T15:22:48.310Z,30.13
2023-02-06T15:25:10.617Z,16.58
2023-02-06T15:27:32.106Z,12.93
2023-02-06T15:29:33.729Z,13.32
2023-02-06T15:31:36.044Z,16.63
2023-02-06T15:33:38.802Z,16.15
2023-02-06T15:35:48.456Z,15.57
2023-02-06T15:37:51.872Z,47.60
2023-02-06T15:39:54.156Z,34.92
2023-02-06T15:41:55.863Z,27.65
2023-02-06T15:44:20.795Z,26.75
2023-02-06T15:46:23.125Z,112.70
2023-02-06T15:48:30.885Z,43.22
2023-02-06T15:50:32.469Z,57.45
2023-02-06T15:52:47.062Z,126.60
2023-02-06T15:54:57.649Z,94.00
2023-02-06T15:57:03.084Z,134.20
2023-02-06T15:59:13.231Z,115.15
2023-02-06T16:01:18.583Z,91.68
2023-02-06T16:03:24.179Z,77.43
2023-02-06T16:05:31.307Z,73.97
2023-02-06T16:07:36.131Z,80.07
2023-02-06T16:09:42.657Z,78.40
2023-02-06T16:11:47.449Z,63.10
2023-02-06T16:13:49.051Z,58.13
2023-02-06T16:16:05.089Z,61.20
2023-02-06T16:18:24.806Z,58.55
2023-02-06T16:20:32.312Z,57.85
2023-02-06T16:22:38.511Z,60.78
2023-02-06T16:24:40.071Z,60.97
2023-02-06T16:26:47.296Z,58.03
2023-02-06T16:29:04.253Z,76.85
2023-02-06T16:31:06.063Z,121.53
2023-02-06T16:33:34.300Z,98.78
2023-02-06T16:35:35.884Z,101.53
2023-02-06T16:37:37.498Z,178.80
2023-02-06T16:39:42.523Z,155.52
2023-02-06T16:41:51.142Z,110.70
2023-02-06T16:43:54.378Z,116.47
2023-02-06T16:45:56.161Z,214.30
2023-02-06T16:47:57.849Z,78.68
2023-02-06T16:49:59.379Z,68.03
2023-02-06T16:52:01.012Z,91.68
2023-02-06T16:54:04.276Z,77.85
2023-02-06T16:56:05.996Z,66.57
2023-02-06T16:58:18.145Z,66.32
2023-02-06T17:00:23.691Z,59.60
2023-02-06T17:02:26.877Z,67.68
2023-02-06T17:04:28.661Z,79.68
2023-02-06T17:06:33.367Z,67.88
2023-02-06T17:08:38.857Z,63.30
2023-02-06T17:10:40.523Z,61.17
2023-02-06T17:12:44.601Z,56.72
2023-02-06T17:14:46.235Z,69.28
2023-02-06T17:16:47.849Z,57.05
2023-02-06T17:18:50.438Z,62.22
2023-02-06T17:20:53.201Z,53.53
2023-02-06T17:22:54.931Z,59.15
2023-02-06T17:24:56.564Z,64.88
2023-02-06T17:26:59.214Z,50.70
2023-02-06T17:29:00.980Z,54.33
2023-02-06T17:31:03.080Z,60.17
2023-02-06T17:33:06.338Z,69.82
2023-02-06T17:35:08.262Z,70.95
2023-02-06T17:37:20.794Z,85.32
2023-02-06T17:39:22.888Z,97.57
2023-02-06T17:41:25.504Z,96.38
2023-02-06T17:43:36.438Z,97.72
2023-02-06T17:45:40.181Z,100.65
2023-02-06T17:47:42.344Z,86.25
2023-02-06T17:49:44.031Z,105.78
2023-02-06T17:51:46.204Z,105.15
2023-02-06T17:53:47.829Z,136.18
2023-02-06T17:55:49.636Z,95.82
2023-02-06T17:57:52.133Z,94.22
2023-02-06T17:59:53.983Z,76.72
2023-02-06T18:01:55.786Z,68.25
2023-02-06T18:03:57.623Z,70.47
2023-02-06T18:06:00.367Z,69.13
2023-02-06T18:08:01.908Z,66.68
2023-02-06T18:10:04.876Z,66.63
2023-02-06T18:12:06.741Z,68.53
2023-02-06T18:14:08.633Z,68.93
2023-02-06T18:16:29.246Z,80.80
2023-02-06T18:18:31.465Z,101.50
2023-02-06T18:20:33.265Z,80.00
2023-02-06T18:22:41.080Z,81.10
2023-02-06T18:24:43.020Z,101.97
2023-02-06T18:26:44.623Z,94.63
2023-02-06T18:28:46.378Z,95.63
2023-02-06T18:30:48.126Z,102.82
2023-02-06T18:32:49.891Z,92.15
2023-02-06T18:34:51.859Z,81.38
2023-02-06T18:36:53.516Z,84.22
2023-02-06T18:38:55.438Z,83.53
2023-02-06T18:41:03.209Z,83.75
2023-02-06T18:43:05.981Z,84.75
2023-02-06T18:45:08.112Z,87.50
2023-02-06T18:47:11.255Z,87.78
2023-02-06T18:49:13.185Z,88.32
2023-02-06T18:51:15.046Z,103.35
2023-02-06T18:53:16.605Z,109.53
2023-02-06T18:55:19.267Z,108.47
2023-02-06T18:57:21.114Z,95.07
2023-02-06T18:59:22.685Z,83.28
2023-02-06T19:01:24.958Z,76.32
2023-02-06T19:03:26.476Z,78.25
2023-02-06T19:05:30.729Z,82.15
2023-02-06T19:07:32.468Z,83.53
2023-02-06T19:09:34.037Z,79.05
2023-02-06T19:11:36.932Z,77.18
2023-02-06T19:13:40.685Z,70.88
2023-02-06T19:15:42.454Z,63.63
2023-02-06T19:17:44.373Z,62.42
2023-02-06T19:19:46.239Z,60.33
2023-02-06T19:21:47.788Z,58.70
2023-02-06T19:23:58.161Z,65.90
2023-02-06T19:25:59.765Z,76.05
2023-02-06T19:28:01.324Z,89.13
2023-02-06T19:30:03.049Z,101.25
2023-02-06T19:32:06.864Z,104.15
2023-02-06T19:34:09.985Z,97.38
2023-02-06T19:36:14.865Z,100.25
2023-02-06T19:38:16.417Z,101.40
2023-02-06T19:40:17.967Z,102.72
2023-02-06T19:42:19.591Z,104.22
2023-02-06T19:44:21.841Z,94.15
2023-02-06T19:46:25.963Z,100.00
2023-02-06T19:48:27.673Z,95.85
2023-02-06T19:50:29.289Z,103.53
2023-02-06T19:52:31.396Z,96.47
2023-02-06T19:54:33.187Z,86.78
2023-02-06T19:56:39.512Z,96.82
2023-02-06T19:58:41.929Z,88.32
2023-02-06T20:00:43.497Z,82.25
2023-02-06T20:02:45.089Z,80.70
2023-02-06T20:04:46.902Z,76.63
2023-02-06T20:06:51.156Z,80.75
2023-02-06T20:08:52.773Z,80.93
2023-02-06T20:10:55.516Z,87.90
2023-02-06T20:12:58.921Z,102.22
2023-02-06T20:15:00.997Z,115.68
2023-02-06T20:17:02.558Z,115.05
2023-02-06T20:19:13.327Z,103.45
2023-02-06T20:21:29.595Z,91.80
2023-02-06T20:23:35.156Z,86.57
2023-02-06T20:25:38.331Z,84.28
2023-02-06T20:27:40.268Z,85.90
2023-02-06T20:29:43.316Z,137.70
2023-02-06T20:31:44.996Z,102.60
2023-02-06T20:33:48.938Z,117.20
2023-02-06T20:35:50.444Z,130.57
2023-02-06T20:37:52.143Z,150.95
2023-02-06T20:39:53.737Z,139.68
2023-02-06T20:41:55.508Z,160.75
2023-02-06T20:44:01.499Z,164.43
2023-02-06T20:46:06.772Z,197.80
2023-02-06T20:48:08.468Z,208.88
2023-02-06T20:50:10.113Z,217.98
2023-02-06T20:52:11.923Z,195.32
2023-02-06T20:54:13.492Z,193.55
2023-02-06T20:56:15.745Z,242.35
2023-02-06T20:58:17.759Z,221.85
2023-02-06T21:00:19.804Z,190.00
2023-02-06T21:02:21.707Z,166.93
2023-02-06T21:04:23.467Z,102.80
2023-02-06T21:06:25.861Z,88.82
2023-02-06T21:08:27.967Z,79.97
2023-02-06T21:10:29.561Z,72.97
2023-02-06T21:12:31.117Z,77.63
2023-02-06T21:14:32.936Z,66.38
2023-02-06T21:16:35.773Z,59.33
2023-02-06T21:18:38.840Z,59.50
2023-02-06T21:20:40.411Z,83.10
2023-02-06T21:22:42.045Z,78.78
2023-02-06T21:24:43.608Z,66.32
2023-02-06T21:26:45.233Z,79.20
2023-02-06T21:28:46.879Z,122.28
2023-02-06T21:30:49.656Z,124.47
2023-02-06T21:32:51.355Z,118.55
2023-02-06T21:34:52.928Z,102.88
2023-02-06T21:36:54.707Z,87.22
2023-02-06T21:38:57.340Z,82.47
2023-02-06T21:41:11.052Z,93.50
2023-02-06T21:43:15.252Z,92.53
2023-02-06T21:45:17.041Z,71.25
2023-02-06T21:47:18.703Z,57.42
2023-02-06T21:49:21.201Z,59.40
2023-02-06T21:51:23.233Z,69.32
2023-02-06T21:53:25.331Z,66.53
2023-02-06T21:55:26.863Z,72.72
2023-02-06T21:57:28.401Z,72.28
2023-02-06T21:59:33.923Z,71.07
2023-02-06T22:01:36.301Z,77.82
2023-02-06T22:03:37.879Z,75.15
2023-02-06T22:05:39.631Z,72.43
2023-02-06T22:07:41.343Z,83.70
2023-02-06T22:09:43.099Z,78.10
2023-02-06T22:11:44.731Z,74.57
2023-02-06T22:13:46.553Z,62.22
2023-02-06T22:15:51.377Z,58.33
2023-02-06T22:17:52.981Z,59.45
2023-02-06T22:19:55.073Z,67.30
2023-02-06T22:21:56.639Z,102.18
2023-02-06T22:24:01.721Z,106.57
2023-02-06T22:26:04.123Z,76.80
2023-02-06T22:28:05.704Z,73.32
2023-02-06T22:30:07.842Z,53.92
2023-02-06T22:32:09.490Z,51.30
2023-02-06T22:34:21.131Z,59.40
2023-02-06T22:36:26.451Z,61.78
2023-02-06T22:38:27.997Z,62.85
2023-02-06T22:40:29.523Z,57.38
2023-02-06T22:42:31.104Z,46.70
2023-02-06T22:44:32.625Z,41.22
2023-02-06T22:46:36.979Z,49.58
2023-02-06T22:48:39.170Z,67.15
2023-02-06T22:50:40.812Z,59.55
2023-02-06T22:53:00.814Z,62.33
2023-02-06T22:55:04.248Z,55.13
2023-02-06T22:57:05.813Z,46.97
2023-02-06T22:59:19.289Z,50.90
2023-02-06T23:01:23.172Z,62.58
2023-02-06T23:03:24.764Z,79.22
2023-02-06T23:05:26.307Z,83.82
2023-02-06T23:07:27.856Z,74.43
2023-02-06T23:09:38.618Z,64.80
2023-02-06T23:11:40.307Z,57.10
2023-02-06T23:13:42.122Z,58.70
2023-02-06T23:15:43.783Z,58.72
2023-02-06T23:17:45.369Z,59.15
2023-02-06T23:19:47.049Z,53.67
2023-02-06T23:21:49.982Z,69.93
2023-02-06T23:23:53.573Z,73.43
2023-02-06T23:25:55.959Z,72.13
2023-02-06T23:27:57.606Z,66.35
2023-02-06T23:29:59.613Z,62.15
2023-02-06T23:32:01.241Z,57.30
2023-02-06T23:34:03.352Z,51.88
2023-02-06T23:36:09.486Z,56.53
2023-02-06T23:38:11.640Z,63.20
2023-02-06T23:40:13.206Z,56.03
2023-02-06T23:42:14.752Z,42.60
2023-02-06T23:44:16.326Z,48.03
2023-02-06T23:46:20.073Z,47.45
2023-02-06T23:48:21.800Z,56.08
2023-02-06T23:50:24.788Z,61.75
2023-02-06T23:52:26.560Z,67.10
2023-02-06T23:54:28.134Z,65.47
2023-02-06T23:56:31.697Z,65.50
2023-02-06T23:58:33.272Z,62.67
